Time;durP1;ratioP1;P1;durP2;ratioP2;P2;SDS_P1;SDS_P2;PMS_P1;PMS_P2;Temp;Humidity;BMP_temperature;BMP_pressure;BME280_temperature;BME280_humidity;BME280_pressure;Samples;Min_cycle;Max_cycle;Signal;HPM_P1;HPM_P2
2023/10/20 00:00:14;;;;;;;7.40;3.20;;;;;;;15.06;71.51;94287.43;106774;1275;25398;-83
2023/10/20 00:03:03;;;;;;;10.30;3.20;;;;;;;15.16;71.00;94287.18;106717;1275;23456;-83
2023/10/20 00:05:33;;;;;;;6.10;3.30;;;;;;;15.18;71.38;94281.08;106643;1275;24253;-82
2023/10/20 00:08:02;;;;;;;13.20;3.60;;;;;;;15.30;69.77;94274.16;106746;1275;25509;-82
2023/10/20 00:10:35;;;;;;;7.10;3.00;;;;;;;15.43;69.61;94274.63;106740;1275;25230;-82
2023/10/20 00:13:05;;;;;;;7.90;3.20;;;;;;;15.65;68.82;94269.83;106746;1275;25288;-80
2023/10/20 00:15:34;;;;;;;14.30;3.50;;;;;;;15.75;68.47;94268.88;106749;1275;25317;-81
2023/10/20 00:18:03;;;;;;;5.40;3.30;;;;;;;15.84;67.92;94267.86;106757;1275;22710;-82
2023/10/20 00:20:31;;;;;;;11.80;3.30;;;;;;;15.86;67.81;94269.32;106750;1275;22529;-80
2023/10/20 00:23:00;;;;;;;7.60;3.60;;;;;;;15.82;68.05;94273.63;106731;1275;22533;-81
2023/10/20 00:25:28;;;;;;;8.90;4.40;;;;;;;15.80;67.75;94267.17;106650;1275;22583;-85
2023/10/20 00:27:56;;;;;;;12.50;3.50;;;;;;;15.87;67.32;94261.40;106687;1275;24081;-82
2023/10/20 00:30:25;;;;;;;7.40;3.10;;;;;;;15.99;67.23;94254.86;106704;1275;25226;-80
2023/10/20 00:32:53;;;;;;;8.10;3.40;;;;;;;16.06;66.58;94250.86;106993;1275;25411;-84
2023/10/20 00:35:22;;;;;;;7.20;3.50;;;;;;;16.12;66.59;94257.44;106746;1275;22542;-82
2023/10/20 00:37:51;;;;;;;6.50;2.70;;;;;;;16.05;66.77;94261.04;106665;1275;22707;-82
2023/10/20 00:40:21;;;;;;;13.00;2.80;;;;;;;16.04;67.08;94271.58;106716;1275;25340;-81
2023/10/20 00:42:50;;;;;;;11.90;3.10;;;;;;;16.12;66.43;94271.41;106701;1275;24304;-86
2023/10/20 00:45:19;;;;;;;8.50;3.00;;;;;;;16.27;66.02;94274.40;106717;1275;25379;-82
2023/10/20 00:47:48;;;;;;;12.30;2.80;;;;;;;16.32;66.30;94274.31;106762;1264;24197;-82
2023/10/20 00:50:18;;;;;;;11.40;3.80;;;;;;;16.39;65.89;94271.89;106776;1275;22527;-81
2023/10/20 00:52:49;;;;;;;9.10;3.10;;;;;;;16.42;66.06;94269.23;106763;1261;24323;-81
2023/10/20 00:55:20;;;;;;;6.70;3.10;;;;;;;16.48;65.43;94259.30;106658;1275;22653;-82
2023/10/20 00:57:49;;;;;;;10.40;3.40;;;;;;;16.53;65.37;94254.90;106724;1275;22886;-83
2023/10/20 01:00:18;;;;;;;7.70;3.60;;;;;;;16.66;64.81;94252.61;106925;1275;25393;-82
2023/10/20 01:02:46;;;;;;;7.20;3.50;;;;;;;16.65;65.43;94248.09;106664;1275;24342;-81
2023/10/20 01:05:15;;;;;;;10.80;3.60;;;;;;;16.54;66.03;94257.31;106702;1275;22527;-81
2023/10/20 01:07:44;;;;;;;7.00;3.50;;;;;;;16.35;66.60;94259.20;106777;1274;22556;-80
2023/10/20 01:10:12;;;;;;;12.00;3.80;;;;;;;16.15;67.00;94253.67;106736;1275;24223;-81
2023/10/20 01:12:40;;;;;;;9.20;3.50;;;;;;;15.92;68.30;94247.64;106666;1254;26705;-81
2023/10/20 01:15:09;;;;;;;11.90;3.40;;;;;;;15.71;69.08;94245.34;106721;1275;24367;-81
2023/10/20 01:17:39;;;;;;;10.80;3.60;;;;;;;15.56;69.49;94246.90;106647;1264;26614;-81
2023/10/20 01:20:08;;;;;;;11.10;4.20;;;;;;;15.59;69.35;94243.55;106741;1275;24199;-82
2023/10/20 01:22:37;;;;;;;7.20;3.20;;;;;;;15.86;68.63;94232.42;106732;1275;22521;-80
2023/10/20 01:25:05;;;;;;;10.20;3.60;;;;;;;16.12;68.00;94232.39;106751;1275;25310;-82
2023/10/20 01:27:33;;;;;;;8.10;2.90;;;;;;;16.35;67.13;94231.15;106697;1275;22531;-80
2023/10/20 01:30:01;;;;;;;9.60;3.50;;;;;;;16.58;65.95;94236.80;106741;1275;24116;-79
2023/10/20 01:32:30;;;;;;;8.40;3.10;;;;;;;16.82;65.19;94233.73;106637;1275;25526;-81
2023/10/20 01:34:59;;;;;;;9.30;3.40;;;;;;;16.91;64.65;94240.22;106735;1274;25452;-81
2023/10/20 01:37:28;;;;;;;12.50;3.30;;;;;;;17.02;64.04;94238.58;106762;1274;24221;-80
2023/10/20 01:39:57;;;;;;;11.40;3.70;;;;;;;17.10;63.80;94228.48;106670;1275;22528;-84
2023/10/20 01:42:25;;;;;;;9.90;3.10;;;;;;;17.14;63.94;94238.03;106641;1274;22536;-81
2023/10/20 01:44:53;;;;;;;8.60;3.00;;;;;;;17.15;63.61;94236.19;106672;1275;22561;-82
2023/10/20 01:47:21;;;;;;;9.20;3.70;;;;;;;17.17;63.69;94227.35;106699;1274;22556;-80
2023/10/20 01:49:49;;;;;;;6.00;3.20;;;;;;;17.21;63.45;94232.57;106836;1275;24367;-80
2023/10/20 01:52:17;;;;;;;13.20;4.00;;;;;;;17.17;63.46;94229.61;106710;1275;25312;-81
2023/10/20 01:54:46;;;;;;;9.10;3.10;;;;;;;17.15;63.94;94227.79;106646;1274;22628;-82
2023/10/20 01:57:14;;;;;;;15.80;4.00;;;;;;;17.13;63.89;94224.58;106649;1274;24209;-83
2023/10/20 01:59:42;;;;;;;5.80;2.60;;;;;;;17.21;63.27;94225.45;106671;1275;22525;-85
2023/10/20 02:02:11;;;;;;;10.60;3.70;;;;;;;17.36;63.09;94224.50;106713;1275;22986;-80
2023/10/20 02:04:39;;;;;;;7.90;3.30;;;;;;;17.31;63.62;94223.56;106749;1275;22525;-82
2023/10/20 02:07:08;;;;;;;9.20;3.50;;;;;;;17.26;63.69;94224.55;106693;1274;22594;-80
2023/10/20 02:09:36;;;;;;;10.90;3.60;;;;;;;17.22;63.66;94231.45;106615;1274;22789;-81
2023/10/20 02:12:04;;;;;;;7.60;3.30;;;;;;;17.20;63.70;94229.42;106447;1275;24220;-81
2023/10/20 02:14:33;;;;;;;10.10;3.50;;;;;;;17.11;64.13;94221.90;106614;1275;22582;-78
2023/10/20 02:17:01;;;;;;;6.90;3.10;;;;;;;17.01;64.46;94218.64;106932;1275;24202;-82
2023/10/20 02:19:30;;;;;;;7.60;3.30;;;;;;;16.88;65.34;94219.96;106831;1275;23881;-81
2023/10/20 02:22:01;;;;;;;9.50;3.60;;;;;;;16.87;64.97;94217.04;106709;1275;22537;-80
2023/10/20 02:24:29;;;;;;;13.10;3.80;;;;;;;16.88;65.17;94217.85;106750;1274;25639;-81
2023/10/20 02:26:58;;;;;;;11.40;4.30;;;;;;;16.87;64.80;94209.75;106714;1275;26026;-81
2023/10/20 02:29:26;;;;;;;10.50;3.60;;;;;;;16.88;65.09;94213.77;106747;1275;23889;-80
2023/10/20 02:31:56;;;;;;;10.30;3.80;;;;;;;16.79;65.67;94206.02;106717;1275;22528;-79
2023/10/20 02:34:25;;;;;;;6.70;3.40;;;;;;;16.59;66.45;94215.23;106732;1274;22547;-82
2023/10/20 02:36:53;;;;;;;6.90;2.80;;;;;;;16.50;66.42;94209.60;106678;1275;25278;-80
2023/10/20 02:39:22;;;;;;;9.20;3.10;;;;;;;16.53;66.65;94197.90;106725;1274;24334;-81
2023/10/20 02:41:50;;;;;;;12.70;3.10;;;;;;;16.55;66.56;94198.81;106702;1274;22534;-80
2023/10/20 02:44:18;;;;;;;7.10;2.30;;;;;;;16.57;66.76;94194.06;106802;1275;23733;-79
2023/10/20 02:46:48;;;;;;;7.70;3.00;;;;;;;16.65;66.20;94198.35;106680;1275;24238;-80
2023/10/20 02:49:16;;;;;;;11.60;4.00;;;;;;;16.74;66.08;94188.57;106722;1274;22540;-81
2023/10/20 02:51:44;;;;;;;12.30;3.60;;;;;;;16.79;65.86;94187.87;106784;1275;22752;-81
2023/10/20 02:54:12;;;;;;;8.70;3.80;;;;;;;16.89;65.37;94188.85;106781;1275;22520;-80
2023/10/20 02:56:40;;;;;;;10.10;4.00;;;;;;;16.94;65.40;94192.62;106650;1275;22663;-80
2023/10/20 02:59:08;;;;;;;12.80;3.90;;;;;;;16.89;65.70;94196.30;106681;1275;26019;-79
2023/10/20 03:01:36;;;;;;;10.60;3.90;;;;;;;16.89;65.75;94191.37;106675;1274;25364;-82
2023/10/20 03:04:05;;;;;;;17.70;4.70;;;;;;;16.92;65.69;94190.44;106830;1275;24253;-81
2023/10/20 03:06:33;;;;;;;15.10;3.90;;;;;;;16.94;65.82;94184.09;106889;1275;22605;-81
2023/10/20 03:09:01;;;;;;;9.60;3.90;;;;;;;16.78;66.71;94183.70;106677;1275;22526;-80
2023/10/20 03:11:31;;;;;;;10.90;3.90;;;;;;;16.63;67.47;94183.59;106675;1274;22528;-82
2023/10/20 03:14:00;;;;;;;10.80;3.90;;;;;;;16.49;67.92;94177.75;106616;1274;25370;-80
2023/10/20 03:16:28;;;;;;;13.30;3.70;;;;;;;16.30;68.85;94178.27;106693;1275;22531;-81
2023/10/20 03:18:56;;;;;;;9.50;3.50;;;;;;;16.03;70.76;94181.52;106819;1275;24100;-80
2023/10/20 03:21:24;;;;;;;10.60;3.40;;;;;;;16.06;69.52;94173.16;106732;1275;22757;-80
2023/10/20 03:23:52;;;;;;;6.90;2.70;;;;;;;16.20;69.34;94176.58;106701;1275;22586;-81
2023/10/20 03:26:22;;;;;;;10.60;3.50;;;;;;;16.24;69.08;94179.30;106663;1274;22537;-83
2023/10/20 03:28:50;;;;;;;11.50;2.60;;;;;;;16.50;67.90;94173.06;106701;1274;23991;-81
2023/10/20 03:31:18;;;;;;;6.60;2.60;;;;;;;16.54;68.15;94174.21;106751;1274;22529;-80
2023/10/20 03:33:48;;;;;;;12.80;4.00;;;;;;;16.53;67.98;94176.75;106787;1275;22527;-81
2023/10/20 03:36:16;;;;;;;12.70;2.60;;;;;;;16.54;68.11;94170.53;106628;1275;22673;-83
2023/10/20 03:38:44;;;;;;;10.40;3.20;;;;;;;16.51;68.40;94166.80;106733;1274;25318;-81
2023/10/20 03:41:14;;;;;;;16.60;3.50;;;;;;;16.47;68.53;94171.69;106967;1275;22777;-80
2023/10/20 03:43:44;;;;;;;7.30;2.70;;;;;;;16.41;69.09;94174.90;106763;1275;24150;-80
2023/10/20 03:46:13;;;;;;;5.90;3.00;;;;;;;16.34;69.31;94178.38;106926;1275;22549;-80
2023/10/20 03:48:42;;;;;;;9.10;3.30;;;;;;;16.21;69.76;94183.27;106752;1274;24236;-81
2023/10/20 03:51:13;;;;;;;11.60;3.10;;;;;;;16.22;68.95;94186.94;106747;1275;22524;-81
2023/10/20 03:53:52;;;;;;;10.90;3.70;;;;;;;16.35;68.63;94180.94;106768;1275;23910;-81
2023/10/20 03:56:22;;;;;;;8.00;3.20;;;;;;;16.49;68.33;94188.95;106677;1275;22657;-81
2023/10/20 03:58:50;;;;;;;18.10;4.10;;;;;;;16.54;68.09;94185.20;106714;1275;22526;-81
2023/10/20 04:01:19;;;;;;;13.60;4.50;;;;;;;16.54;68.26;94182.91;106732;1275;25406;-81
2023/10/20 04:03:50;;;;;;;11.40;4.00;;;;;;;16.48;68.78;94181.58;106673;1275;22759;-80
2023/10/20 04:06:20;;;;;;;9.80;4.50;;;;;;;16.24;69.17;94175.95;106825;1275;25399;-79
2023/10/20 04:08:49;;;;;;;9.70;4.10;;;;;;;16.01;70.34;94169.96;106811;1275;25590;-78
2023/10/20 04:11:17;;;;;;;10.90;3.90;;;;;;;15.86;70.37;94170.17;106658;1275;23014;-79
2023/10/20 04:13:46;;;;;;;10.40;4.70;;;;;;;15.85;71.40;94168.09;106790;1275;25261;-78
2023/10/20 04:16:16;;;;;;;15.40;4.10;;;;;;;15.78;71.26;94160.05;106803;1275;22654;-79
2023/10/20 04:18:46;;;;;;;5.50;3.40;;;;;;;15.93;70.12;94151.47;106811;1275;24377;-80
2023/10/20 04:21:15;;;;;;;20.20;4.30;;;;;;;16.01;70.53;94149.02;106801;1275;22528;-79
2023/10/20 04:23:43;;;;;;;7.50;4.00;;;;;;;15.95;71.06;94144.99;106731;1274;22759;-79
2023/10/20 04:26:20;;;;;;;28.60;5.90;;;;;;;15.85;71.12;94152.49;106849;1274;24802;-79
2023/10/20 05:04:15;;;;;;;6.70;2.90;;;;;;;15.96;70.75;94163.16;106857;1274;25271;-84
2023/10/20 05:06:45;;;;;;;16.50;3.10;;;;;;;16.14;70.19;94167.35;106785;1274;25510;-81
2023/10/20 05:09:14;;;;;;;10.60;4.20;;;;;;;16.32;69.23;94163.56;106841;1274;22533;-81
2023/10/20 05:11:42;;;;;;;9.60;3.00;;;;;;;16.39;69.51;94162.89;106932;1274;25233;-81
2023/10/20 05:14:10;;;;;;;10.40;3.40;;;;;;;16.37;69.26;94168.90;106637;1274;24258;-83
2023/10/20 05:16:39;;;;;;;8.60;3.70;;;;;;;16.43;69.27;94166.23;107023;1274;25380;-80
2023/10/20 05:19:07;;;;;;;9.40;3.40;;;;;;;16.48;68.00;94164.33;107041;1274;24250;-85
2023/10/20 05:21:38;;;;;;;9.90;3.80;;;;;;;16.54;68.34;94159.67;106832;1274;22534;-84
2023/10/20 05:24:08;;;;;;;13.00;7.50;;;;;;;16.51;69.18;94158.06;106919;1274;25216;-85
2023/10/20 05:26:36;;;;;;;17.40;8.50;;;;;;;16.39;69.53;94163.13;107021;1274;25378;-81
2023/10/20 05:29:04;;;;;;;16.00;10.80;;;;;;;16.17;69.74;94160.77;107004;1273;23891;-83
2023/10/20 05:31:33;;;;;;;25.30;17.40;;;;;;;15.98;70.41;94160.02;107155;1274;22539;-81
2023/10/20 05:34:04;;;;;;;20.00;8.20;;;;;;;15.82;71.56;94160.14;106773;1274;24306;-83
2023/10/20 05:36:32;;;;;;;13.60;9.20;;;;;;;15.70;72.14;94174.34;106947;1274;23024;-80
2023/10/20 05:39:00;;;;;;;14.40;6.80;;;;;;;15.61;72.22;94170.05;107108;1274;22652;-81
2023/10/20 05:41:29;;;;;;;9.20;3.60;;;;;;;15.68;72.00;94171.98;106818;1273;22639;-82
2023/10/20 05:43:58;;;;;;;10.90;3.00;;;;;;;16.06;70.30;94173.91;106941;1273;25497;-82
2023/10/20 05:46:27;;;;;;;16.90;6.10;;;;;;;16.60;67.71;94173.11;106981;1273;24249;-80
2023/10/20 05:48:55;;;;;;;20.80;11.00;;;;;;;16.79;67.99;94176.55;106909;1273;22652;-83
2023/10/20 05:51:23;;;;;;;17.60;9.80;;;;;;;16.74;68.83;94178.61;106801;1273;25359;-82
2023/10/20 05:53:53;;;;;;;17.20;6.90;;;;;;;16.71;68.72;94170.27;106954;1273;23887;-82
2023/10/20 05:56:21;;;;;;;18.00;7.60;;;;;;;16.73;69.05;94170.14;106909;1273;22531;-82
2023/10/20 05:58:50;;;;;;;10.50;4.20;;;;;;;16.72;68.43;94173.06;106892;1273;24232;-81
2023/10/20 06:01:18;;;;;;;15.40;5.30;;;;;;;16.77;68.76;94167.77;106970;1252;23523;-82
2023/10/20 06:03:46;;;;;;;12.30;4.90;;;;;;;16.82;68.64;94176.88;106892;1273;24302;-84
2023/10/20 06:06:15;;;;;;;8.90;3.40;;;;;;;16.89;68.05;94181.59;106900;1273;22785;-82
2023/10/20 06:08:43;;;;;;;12.00;3.60;;;;;;;17.16;66.30;94180.47;106895;1273;24535;-82
2023/10/20 06:11:12;;;;;;;9.60;4.30;;;;;;;17.50;64.84;94176.75;106823;1274;23275;-82
2023/10/20 06:13:40;;;;;;;8.00;4.20;;;;;;;17.64;65.59;94180.28;106805;1274;23912;-82
2023/10/20 06:16:09;;;;;;;13.50;4.20;;;;;;;17.69;65.15;94185.61;106755;1272;22608;-86
2023/10/20 06:18:41;;;;;;;12.90;4.00;;;;;;;17.83;63.41;94189.99;106902;1275;23892;-84
2023/10/20 06:21:15;;;;;;;11.40;3.80;;;;;;;18.04;62.48;94188.34;106963;1275;24227;-82
2023/10/20 06:23:44;;;;;;;10.00;3.40;;;;;;;18.16;62.08;94191.97;107050;1272;25409;-81
2023/10/20 06:26:13;;;;;;;11.40;6.20;;;;;;;18.25;61.73;94189.05;106899;1274;23881;-81
2023/10/20 06:28:43;;;;;;;13.00;4.70;;;;;;;18.31;62.66;94185.58;106709;1274;22520;-79
2023/10/20 06:33:55;;;;;;;12.20;3.60;;;;;;;18.38;62.02;94188.28;107039;1274;22523;-82
2023/10/20 06:36:26;;;;;;;9.40;5.40;;;;;;;18.43;61.74;94187.06;106735;1260;24382;-82
2023/10/20 06:38:54;;;;;;;13.50;4.80;;;;;;;18.43;61.59;94192.16;106777;1274;25513;-80
2023/10/20 06:41:22;;;;;;;10.40;4.00;;;;;;;18.47;61.53;94186.58;106688;1274;22643;-82
2023/10/20 06:43:50;;;;;;;10.40;3.50;;;;;;;18.50;60.60;94194.33;106721;1274;22647;-80
2023/10/20 06:46:21;;;;;;;12.80;4.40;;;;;;;18.56;61.23;94186.61;107061;1274;22561;-80
2023/10/20 06:48:50;;;;;;;10.10;4.60;;;;;;;18.56;61.53;94188.02;106777;1274;24341;-82
2023/10/20 06:51:18;;;;;;;13.80;4.10;;;;;;;18.58;60.23;94183.64;106805;1270;24209;-81
2023/10/20 06:53:46;;;;;;;11.50;4.20;;;;;;;18.59;60.72;94186.02;106794;1274;25317;-87
2023/10/20 06:56:15;;;;;;;11.60;3.50;;;;;;;18.59;60.04;94187.64;106821;1274;23065;-81
2023/10/20 06:58:49;;;;;;;19.40;3.90;;;;;;;18.67;59.30;94192.64;106841;1274;25633;-83
2023/10/20 07:01:18;;;;;;;13.40;5.10;;;;;;;18.74;59.13;94189.09;106855;1274;25394;-83
2023/10/20 07:03:46;;;;;;;10.90;3.70;;;;;;;18.73;60.23;94190.05;106837;1274;22524;-81
2023/10/20 07:06:15;;;;;;;12.10;4.60;;;;;;;18.67;60.67;94192.80;107042;1274;22539;-81
2023/10/20 07:08:44;;;;;;;12.00;5.20;;;;;;;18.60;61.22;94187.41;106750;1274;22643;-83
2023/10/20 07:11:12;;;;;;;9.80;4.00;;;;;;;18.54;62.26;94189.08;106846;1274;22746;-81
2023/10/20 07:13:41;;;;;;;12.60;3.50;;;;;;;18.46;62.54;94194.66;106777;1274;25399;-82
2023/10/20 07:16:09;;;;;;;10.90;3.60;;;;;;;18.60;59.00;94196.48;106774;1274;25387;-81
2023/10/20 07:18:40;;;;;;;12.50;3.80;;;;;;;18.71;59.87;94192.67;106805;1274;22531;-82
2023/10/20 07:21:08;;;;;;;14.50;4.00;;;;;;;18.80;59.17;94199.85;106796;1271;22554;-85
2023/10/20 07:23:36;;;;;;;12.20;3.50;;;;;;;18.86;59.01;94196.96;106838;1263;22764;-82
2023/10/20 07:26:05;;;;;;;21.40;12.10;;;;;;;18.91;59.01;94207.61;106986;1271;24356;-85
2023/10/20 07:28:33;;;;;;;14.20;5.70;;;;;;;18.94;59.22;94202.23;106935;1273;22592;-80
2023/10/20 07:31:11;;;;;;;292.50;199.70;;;;;;;18.93;58.68;94206.93;107096;1273;23091;-80
2023/10/20 07:33:40;;;;;;;38.40;21.30;;;;;;;18.96;59.21;94205.09;107235;1273;22529;-85
2023/10/20 07:36:08;;;;;;;22.60;8.30;;;;;;;18.97;58.98;94209.12;107206;1273;25268;-81
2023/10/20 07:38:38;;;;;;;18.20;6.90;;;;;;;19.04;57.92;94206.69;106999;1273;22704;-81
2023/10/20 07:41:25;;;;;;;11.80;3.90;;;;;;;19.10;58.44;94208.18;108234;1259;22425;31
2023/10/20 07:43:54;;;;;;;13.00;3.80;;;;;;;19.16;57.91;94210.40;106802;1278;24239;-83
2023/10/20 07:46:22;;;;;;;9.90;3.90;;;;;;;19.19;58.03;94207.67;106734;1279;22597;-82
2023/10/20 08:41:37;;;;;;;13.90;4.10;;;;;;;19.30;58.50;94213.70;103606;1304;544971;-81
2023/10/20 08:44:05;;;;;;;10.30;3.50;;;;;;;19.34;58.38;94209.59;106273;1287;24398;-81
2023/10/20 08:46:34;;;;;;;10.60;3.50;;;;;;;19.42;57.34;94210.25;106303;1287;22536;-80
2023/10/20 08:49:05;;;;;;;13.70;3.40;;;;;;;19.60;55.35;94214.62;106385;1285;25367;-81
2023/10/20 08:51:37;;;;;;;10.90;3.50;;;;;;;19.72;56.30;94201.07;106799;1280;22530;-78
2023/10/20 08:54:09;;;;;;;13.80;3.90;;;;;;;19.80;57.20;94191.67;106769;1278;268983;-80
2023/10/20 08:56:37;;;;;;;17.10;3.60;;;;;;;19.86;58.01;94193.16;106846;1272;22624;-80
2023/10/20 08:59:06;;;;;;;7.50;3.40;;;;;;;19.91;58.16;94186.23;106827;1278;22582;-80
2023/10/20 09:01:34;;;;;;;13.90;3.20;;;;;;;19.96;56.40;94193.65;106770;1278;22557;-79
2023/10/20 09:04:04;;;;;;;11.70;3.40;;;;;;;20.09;55.71;94194.11;106370;1278;22531;-79
2023/10/20 09:06:33;;;;;;;11.90;3.60;;;;;;;20.21;56.91;94196.58;106613;1278;25489;-79
2023/10/20 09:09:05;;;;;;;14.50;4.00;;;;;;;20.26;57.55;94209.85;106525;1278;25443;-79
2023/10/20 09:11:34;;;;;;;;;;;;;;;20.30;57.93;94201.72;106654;1278;23114;-79
2023/10/20 09:14:02;;;;;;;10.70;3.00;;;;;;;20.36;56.46;94214.85;106874;1278;22534;-80
2023/10/20 09:16:34;;;;;;;13.30;3.30;;;;;;;20.44;55.48;94213.87;106675;1278;22548;-80
2023/10/20 09:19:03;;;;;;;11.10;3.50;;;;;;;20.51;54.51;94214.17;106394;1278;25491;-78
2023/10/20 09:21:31;;;;;;;11.90;4.10;;;;;;;20.59;54.10;94214.85;106811;1278;22590;-78
2023/10/20 09:24:05;;;;;;;13.40;4.20;;;;;;;20.66;54.46;94210.52;106602;1278;22541;-78
2023/10/20 09:26:38;;;;;;;11.30;3.50;;;;;;;20.68;53.80;94222.14;106698;1278;22534;-80
2023/10/20 09:29:07;;;;;;;14.00;4.10;;;;;;;20.75;52.14;94221.40;106312;1269;22547;-79
2023/10/20 09:31:38;;;;;;;16.50;4.90;;;;;;;20.90;51.83;94220.21;106596;1278;22528;-80
2023/10/20 09:34:06;;;;;;;24.00;7.70;;;;;;;20.99;52.59;94221.77;106687;1278;25536;-79
2023/10/20 09:36:36;;;;;;;15.00;5.50;;;;;;;21.11;50.58;94218.45;106595;1278;24074;-79
2023/10/20 09:39:08;;;;;;;14.80;4.10;;;;;;;21.27;50.72;94216.84;106550;1278;22785;-79
2023/10/20 09:41:44;;;;;;;20.40;10.10;;;;;;;21.43;50.40;94213.05;106355;1265;22923;-79
2023/10/20 09:44:35;;;;;;;12.90;6.00;;;;;;;21.59;50.10;94214.76;106603;1278;22530;-80
2023/10/20 09:47:19;;;;;;;14.50;4.80;;;;;;;21.80;49.24;94217.05;106885;1273;22761;-81
2023/10/20 09:49:51;;;;;;;15.90;5.00;;;;;;;21.84;49.12;94220.87;107115;1274;22634;-80
2023/10/20 09:52:19;;;;;;;20.00;7.40;;;;;;;21.85;49.13;94222.17;106709;1274;24282;-80
2023/10/20 09:54:50;;;;;;;11.60;4.20;;;;;;;21.82;49.08;94223.15;106811;1274;22523;-79
2023/10/20 09:57:22;;;;;;;11.30;3.20;;;;;;;21.72;49.52;94212.59;106857;1274;22533;-80
2023/10/20 09:59:54;;;;;;;15.60;3.70;;;;;;;21.61;49.59;94217.76;106689;1274;24502;-80
2023/10/20 10:02:30;;;;;;;13.30;4.30;;;;;;;21.61;50.10;94212.96;106870;1274;24382;-81
2023/10/20 10:05:00;;;;;;;10.90;3.40;;;;;;;21.56;49.85;94207.06;106907;1260;25243;-80
2023/10/20 10:07:34;;;;;;;10.40;3.30;;;;;;;21.54;50.18;94202.38;106853;1274;22531;-80
2023/10/20 10:10:03;;;;;;;14.30;2.90;;;;;;;21.56;50.25;94202.61;106760;1274;25383;-79
2023/10/20 10:12:35;;;;;;;;;;;;;;;21.55;49.76;94197.16;106915;1274;24249;-81
2023/10/20 10:15:07;;;;;;;14.50;3.00;;;;;;;21.52;49.31;94201.00;106819;1263;22668;-81
2023/10/20 10:17:46;;;;;;;13.90;3.00;;;;;;;21.53;50.26;94200.34;106860;1274;24457;-80
2023/10/20 10:20:20;;;;;;;13.70;3.40;;;;;;;21.54;51.01;94191.67;106825;1274;22525;-80
2023/10/20 10:23:04;;;;;;;7.50;3.40;;;;;;;21.54;51.43;94195.23;106899;1274;24363;-80
2023/10/20 10:25:36;;;;;;;15.50;4.00;;;;;;;21.52;51.84;94183.25;106851;1274;22538;-80
2023/10/20 10:28:19;;;;;;;14.30;3.30;;;;;;;21.47;51.64;94180.64;106790;1274;24224;-80
2023/10/20 10:30:54;;;;;;;11.10;3.50;;;;;;;21.48;50.03;94181.80;106875;1274;22520;-79
2023/10/20 10:33:23;;;;;;;10.00;3.00;;;;;;;21.55;49.75;94179.63;106785;1274;22737;-80
2023/10/20 10:36:04;;;;;;;14.40;3.60;;;;;;;21.65;49.19;94173.02;106864;1274;23151;-80
2023/10/20 10:38:42;;;;;;;12.00;3.20;;;;;;;21.83;50.06;94170.66;106918;1274;22531;-80
2023/10/20 10:41:11;;;;;;;13.20;3.60;;;;;;;22.28;48.40;94173.77;106822;1274;22624;-80
2023/10/20 10:43:39;;;;;;;13.80;3.80;;;;;;;22.47;47.82;94173.20;106885;1274;22607;-81
2023/10/20 10:46:07;;;;;;;10.30;2.90;;;;;;;22.52;46.40;94178.13;106855;1274;25399;-80
2023/10/20 10:48:37;;;;;;;14.10;3.10;;;;;;;22.71;46.57;94172.13;106872;1274;23413;-81
2023/10/20 10:51:05;;;;;;;16.40;3.10;;;;;;;22.87;47.10;94181.63;106855;1274;22609;-80
2023/10/20 10:53:34;;;;;;;16.10;3.20;;;;;;;22.83;45.15;94191.46;106761;1274;22635;-81
2023/10/20 10:56:03;;;;;;;9.30;3.10;;;;;;;22.90;46.55;94188.55;106801;1274;26783;-79
2023/10/20 10:58:33;;;;;;;18.60;2.90;;;;;;;22.88;45.92;94183.64;106918;1274;22554;-80
2023/10/20 11:01:01;;;;;;;16.80;3.10;;;;;;;22.92;46.03;94183.57;106842;1274;22552;-81
2023/10/20 11:03:30;;;;;;;16.30;3.30;;;;;;;23.25;46.38;94184.91;106916;1274;25443;-82
2023/10/20 11:05:58;;;;;;;12.80;3.10;;;;;;;23.48;44.44;94183.00;106854;1274;25415;-81
2023/10/20 11:08:28;;;;;;;11.10;3.00;;;;;;;23.65;44.51;94169.56;106809;1274;22520;-80
2023/10/20 11:10:59;;;;;;;14.60;3.80;;;;;;;23.84;44.90;94172.14;106848;1274;22542;-81
2023/10/20 11:13:27;;;;;;;12.80;2.80;;;;;;;23.88;43.74;94176.05;106890;1274;23873;-81
2023/10/20 11:15:55;;;;;;;13.10;3.30;;;;;;;23.89;42.61;94173.61;106726;1274;22540;-81
2023/10/20 11:18:24;;;;;;;14.00;3.70;;;;;;;24.22;42.11;94179.73;106813;1274;22541;-81
2023/10/20 11:20:56;;;;;;;12.20;3.00;;;;;;;24.43;41.80;94180.87;106859;1274;24464;-81
2023/10/20 11:23:31;;;;;;;16.60;3.20;;;;;;;24.25;41.59;94176.83;106816;1274;25425;-81
2023/10/20 11:26:14;;;;;;;9.50;3.20;;;;;;;24.04;41.94;94170.58;106902;1274;22598;-79
2023/10/20 11:28:46;;;;;;;11.60;2.80;;;;;;;23.90;42.73;94179.42;106865;1274;23047;-82
2023/10/20 11:31:14;;;;;;;14.00;3.20;;;;;;;23.74;42.44;94194.27;106871;1274;24470;-81
2023/10/20 11:33:42;;;;;;;15.30;4.90;;;;;;;23.62;43.28;94196.44;106882;1274;24994;-79
2023/10/20 11:36:11;;;;;;;17.10;3.30;;;;;;;23.38;43.47;94197.46;106827;1274;25263;-80
2023/10/20 11:38:39;;;;;;;12.90;3.00;;;;;;;23.22;43.58;94212.98;106806;1274;23887;-80
2023/10/20 11:41:07;;;;;;;17.60;3.40;;;;;;;23.08;43.90;94201.13;106843;1274;24301;-81
2023/10/20 11:43:37;;;;;;;14.20;3.60;;;;;;;22.96;43.91;94203.83;106909;1274;23893;-81
2023/10/20 11:46:06;;;;;;;13.00;3.50;;;;;;;22.88;43.91;94202.86;106756;1274;22643;-81
2023/10/20 11:48:34;;;;;;;12.70;3.30;;;;;;;22.94;44.34;94199.71;106853;1260;24347;-81
2023/10/20 11:51:03;;;;;;;9.90;3.00;;;;;;;23.08;43.28;94199.52;106669;1274;22520;-83
2023/10/20 11:53:32;;;;;;;9.70;3.10;;;;;;;23.09;43.13;94189.52;106790;1274;22635;-78
2023/10/20 11:56:00;;;;;;;13.00;3.60;;;;;;;23.08;43.42;94195.55;106852;1274;22516;-81
2023/10/20 11:58:28;;;;;;;17.50;2.90;;;;;;;23.36;43.35;94194.84;106840;1274;25543;-80
2023/10/20 12:00:56;;;;;;;10.10;3.10;;;;;;;24.13;42.75;94180.57;106815;1274;25356;-81
2023/10/20 12:03:24;;;;;;;13.50;3.20;;;;;;;25.21;42.29;94174.92;106788;1274;24350;-81
2023/10/20 12:05:54;;;;;;;10.30;2.90;;;;;;;26.20;39.97;94163.06;106814;1274;22888;-81
2023/10/20 12:08:23;;;;;;;11.60;3.40;;;;;;;27.05;38.03;94162.32;106849;1274;24221;-81
2023/10/20 12:10:51;;;;;;;10.00;2.80;;;;;;;27.80;37.15;94137.43;106800;1274;24269;-82
2023/10/20 12:13:19;;;;;;;11.80;2.50;;;;;;;28.43;36.39;94144.48;106792;1274;23271;-82
2023/10/20 12:15:47;;;;;;;12.00;3.20;;;;;;;28.33;35.49;94148.88;106916;1274;24251;-81
2023/10/20 12:18:15;;;;;;;17.30;3.80;;;;;;;27.57;35.19;94152.21;106866;1274;22645;-82
2023/10/20 12:20:44;;;;;;;13.30;3.10;;;;;;;26.90;35.41;94166.59;106820;1274;25378;-81
2023/10/20 12:23:12;;;;;;;9.20;2.70;;;;;;;27.17;35.35;94164.65;106854;1274;22544;-81
2023/10/20 12:25:40;;;;;;;10.50;2.80;;;;;;;27.69;35.20;94160.81;106807;1274;23874;-80
2023/10/20 12:28:08;;;;;;;11.30;3.10;;;;;;;28.24;34.75;94157.83;106812;1274;24355;-79
2023/10/20 12:30:36;;;;;;;16.70;2.90;;;;;;;28.03;33.56;94152.19;106902;1274;25318;-80
2023/10/20 12:33:08;;;;;;;11.60;3.00;;;;;;;27.85;33.93;94160.18;106836;1274;24251;-81
2023/10/20 12:35:36;;;;;;;9.90;2.50;;;;;;;28.08;33.66;94152.58;106838;1274;22524;-80
2023/10/20 12:38:05;;;;;;;7.70;2.60;;;;;;;28.52;33.19;94148.58;106885;1274;22547;-81
2023/10/20 12:40:34;;;;;;;20.30;3.50;;;;;;;28.98;32.83;94140.52;106809;1263;22653;-81
2023/10/20 12:43:08;;;;;;;13.70;3.30;;;;;;;29.43;31.79;94142.71;106919;1274;22613;-78
2023/10/20 12:45:41;;;;;;;9.60;3.10;;;;;;;29.66;31.71;94139.11;106849;1274;25422;-80
2023/10/20 12:48:09;;;;;;;11.80;2.50;;;;;;;30.03;30.55;94139.19;106898;1274;23140;-80
2023/10/20 12:50:38;;;;;;;13.10;2.80;;;;;;;30.42;30.88;94137.85;106847;1274;22529;-81
2023/10/20 12:53:07;;;;;;;12.20;2.70;;;;;;;30.50;29.88;94132.25;106845;1274;24378;-81
2023/10/20 12:55:35;;;;;;;11.50;3.60;;;;;;;30.67;29.61;94140.45;106843;1274;22535;-81
2023/10/20 12:58:04;;;;;;;11.20;3.10;;;;;;;30.68;29.18;94125.94;106872;1274;22527;-79
2023/10/20 13:00:32;;;;;;;10.70;2.60;;;;;;;30.72;28.78;94117.41;106841;1274;25522;-81